Terminal Aerodrome Forecast
Issued by NWS

Current Version | Previous Version | Text Only | Print | Product List | Glossary On
Versions: 1 2 3 4 5 6 7 8 9 10 11 12 13 14 15 16
000
FTUS46 KSTO 290900 AAA
TAFSAC
TAF AMD
KSAC 290928Z 2909/3006 12005KT 5SM BR VCSH BKN025 OVC040
     FM291200 VRB05KT P6SM SCT025 BKN040
     FM291700 15012KT 5SM -RA BR OVC030=

USA.gov is the U.S. government's official web portal to all federal, state and local government web resources and services.